createdAt,value
2018-09-26T00:00:12.648Z,1026.16
2018-09-26T00:00:54.579Z,1026.15
2018-09-26T00:01:34.989Z,1026.16
2018-09-26T00:02:15.401Z,1026.14
2018-09-26T00:02:55.702Z,1026.14
2018-09-26T00:03:36.183Z,1026.11
2018-09-26T00:04:16.641Z,1026.11
2018-09-26T00:04:57.049Z,1026.09
2018-09-26T00:07:14.223Z,1026.08
2018-09-26T00:07:55.327Z,1025.99
2018-09-26T00:08:35.752Z,1026.02
2018-09-26T00:09:16.174Z,1025.94
2018-09-26T00:09:56.962Z,1026
2018-09-26T00:10:37.401Z,1025.97
2018-09-26T00:11:17.779Z,1025.98
2018-09-26T00:11:58.172Z,1025.96
2018-09-26T00:12:38.703Z,1025.97
2018-09-26T00:13:19.101Z,1026.04
2018-09-26T00:13:59.488Z,1025.98
2018-09-26T00:14:40.122Z,1025.99
2018-09-26T00:15:20.471Z,1026.01
2018-09-26T00:16:00.881Z,1026.02
2018-09-26T00:16:41.275Z,1026.04
2018-09-26T00:17:21.668Z,1026.05
2018-09-26T00:18:02.135Z,1026.02
2018-09-26T00:18:42.557Z,1026.09
2018-09-26T00:19:23.317Z,1026.07
2018-09-26T00:20:03.750Z,1026.07
2018-09-26T00:20:44.148Z,1026.07
2018-09-26T00:21:24.555Z,1026.07
2018-09-26T00:22:05.126Z,1026.07
2018-09-26T00:22:46.232Z,1026.05
2018-09-26T00:23:27.108Z,1026.04
2018-09-26T00:24:07.416Z,1026.09
2018-09-26T00:24:48.330Z,1026.1
2018-09-26T00:25:28.778Z,1026.11
2018-09-26T00:26:09.457Z,1026.05
2018-09-26T00:26:49.812Z,1026.1
2018-09-26T00:27:30.214Z,1026.09
2018-09-26T00:28:10.616Z,1026.1
2018-09-26T00:28:51.066Z,1026.06
2018-09-26T00:29:31.549Z,1026.06
2018-09-26T00:30:11.911Z,1026.05
2018-09-26T00:30:52.344Z,1026.03
2018-09-26T00:31:32.803Z,1026.03
2018-09-26T00:32:13.174Z,1026.03
2018-09-26T00:32:53.624Z,1026.03
2018-09-26T00:33:34.021Z,1026
2018-09-26T00:34:15.138Z,1026.03
2018-09-26T00:34:55.355Z,1026.05
2018-09-26T00:35:35.707Z,1026.05
2018-09-26T00:36:16.143Z,1026.08
2018-09-26T00:36:56.470Z,1026.09
2018-09-26T00:37:36.920Z,1026.07
2018-09-26T00:40:54.888Z,1026.1
2018-09-26T00:41:34.100Z,1026.11
2018-09-26T00:42:14.487Z,1026.11
2018-09-26T00:42:54.889Z,1026.1
2018-09-26T00:43:35.337Z,1026.11
2018-09-26T00:44:15.771Z,1026.09
2018-09-26T00:44:56.164Z,1026.11
2018-09-26T00:45:36.610Z,1026.11
2018-09-26T00:46:17.060Z,1026.16
2018-09-26T00:46:57.419Z,1026.13
2018-09-26T00:47:37.829Z,1026.12
2018-09-26T00:49:56.382Z,1026.06
2018-09-26T00:50:36.833Z,1026.06
2018-09-26T00:51:17.269Z,1026.05
2018-09-26T00:51:57.714Z,1026.01
2018-09-26T00:52:38.087Z,1026.02
2018-09-26T00:53:18.536Z,1026.04
2018-09-26T00:53:58.845Z,1026.04
2018-09-26T00:54:39.238Z,1026.07
2018-09-26T00:55:19.645Z,1026.07
2018-09-26T00:56:00.052Z,1026.02
2018-09-26T00:56:40.467Z,1025.99
2018-09-26T00:57:20.914Z,1026.02
2018-09-26T00:58:01.355Z,1025.98
2018-09-26T00:58:41.667Z,1025.99
2018-09-26T00:59:22.075Z,1025.95
2018-09-26T01:00:02.491Z,1025.96
2018-09-26T01:00:42.998Z,1025.96
2018-09-26T01:01:24.379Z,1025.97
2018-09-26T01:02:04.550Z,1025.95
2018-09-26T01:02:44.859Z,1025.92
2018-09-26T01:03:25.357Z,1025.93
2018-09-26T01:04:05.990Z,1025.93
2018-09-26T01:04:46.330Z,1025.98
2018-09-26T01:05:26.706Z,1025.95
2018-09-26T01:06:07.238Z,1025.98
2018-09-26T01:06:47.662Z,1025.98
2018-09-26T01:07:27.994Z,1025.98
2018-09-26T01:08:08.453Z,1025.98
2018-09-26T01:08:48.809Z,1025.99
2018-09-26T01:09:29.523Z,1026
2018-09-26T01:10:09.749Z,1025.99
2018-09-26T01:10:50.516Z,1026
2018-09-26T01:11:30.846Z,1026.02
2018-09-26T01:12:11.274Z,1025.99
2018-09-26T01:12:51.676Z,1026.02
2018-09-26T01:13:32.216Z,1026
2018-09-26T01:14:12.569Z,1026.03
2018-09-26T01:14:52.884Z,1025.98
2018-09-26T01:15:33.328Z,1025.98
2018-09-26T01:16:13.668Z,1025.99
2018-09-26T01:16:54.128Z,1025.95
2018-09-26T01:17:34.486Z,1025.94
2018-09-26T01:18:14.870Z,1025.91
2018-09-26T01:18:55.260Z,1025.91
2018-09-26T01:19:35.707Z,1025.88
2018-09-26T01:20:16.030Z,1025.85
2018-09-26T01:20:56.478Z,1025.82
2018-09-26T01:21:36.875Z,1025.79
2018-09-26T01:22:17.287Z,1025.74
2018-09-26T01:22:57.682Z,1025.71
2018-09-26T01:23:38.088Z,1025.68
2018-09-26T01:24:18.484Z,1025.68
2018-09-26T01:24:58.888Z,1025.61
2018-09-26T01:25:39.277Z,1025.66
2018-09-26T01:26:19.733Z,1025.62
2018-09-26T01:28:33.137Z,1025.62
2018-09-26T01:29:13.799Z,1025.66
2018-09-26T01:29:54.150Z,1025.62
2018-09-26T01:30:34.548Z,1025.61
2018-09-26T01:31:14.938Z,1025.6
2018-09-26T01:31:55.359Z,1025.62
2018-09-26T01:32:35.764Z,1025.59
2018-09-26T01:33:16.145Z,1025.63
2018-09-26T01:33:56.532Z,1025.59
2018-09-26T01:34:36.938Z,1025.58
2018-09-26T01:35:17.326Z,1025.56
2018-09-26T01:35:57.729Z,1025.58
2018-09-26T01:36:38.123Z,1025.54
2018-09-26T01:37:18.500Z,1025.55
2018-09-26T01:37:58.890Z,1025.52
2018-09-26T01:38:39.289Z,1025.5
2018-09-26T01:39:19.693Z,1025.54
2018-09-26T01:40:00.118Z,1025.5
2018-09-26T01:40:40.495Z,1025.51
2018-09-26T01:41:20.867Z,1025.51
2018-09-26T01:42:01.247Z,1025.54
2018-09-26T01:42:41.657Z,1025.52
2018-09-26T01:43:22.104Z,1025.49
2018-09-26T01:44:02.548Z,1025.45
2018-09-26T01:44:42.942Z,1025.42
2018-09-26T01:45:23.381Z,1025.41
2018-09-26T01:46:03.730Z,1025.35
2018-09-26T01:46:44.165Z,1025.29
2018-09-26T01:47:24.518Z,1025.3
2018-09-26T01:48:04.924Z,1025.29
2018-09-26T01:48:45.331Z,1025.3
2018-09-26T01:49:25.720Z,1025.28
2018-09-26T01:50:06.155Z,1025.3
2018-09-26T01:50:46.524Z,1025.3
2018-09-26T01:51:26.933Z,1025.31
2018-09-26T01:52:07.353Z,1025.33
2018-09-26T01:52:47.776Z,1025.34
2018-09-26T01:53:28.178Z,1025.32
2018-09-26T01:54:08.614Z,1025.33
2018-09-26T01:54:49.023Z,1025.31
2018-09-26T01:55:29.430Z,1025.31
2018-09-26T01:56:09.896Z,1025.31
2018-09-26T01:56:50.247Z,1025.33
2018-09-26T01:57:30.749Z,1025.35
2018-09-26T01:58:11.132Z,1025.36
2018-09-26T01:58:51.538Z,1025.33
2018-09-26T01:59:31.957Z,1025.36
2018-09-26T02:00:12.367Z,1025.39
2018-09-26T02:00:52.784Z,1025.34
2018-09-26T02:01:33.228Z,1025.33
2018-09-26T02:02:13.690Z,1025.32
2018-09-26T02:02:54.058Z,1025.32
2018-09-26T02:03:34.517Z,1025.31
2018-09-26T02:04:14.902Z,1025.35
2018-09-26T02:04:55.344Z,1025.34
2018-09-26T02:07:08.191Z,1025.35
2018-09-26T02:07:50.205Z,1025.39
2018-09-26T02:08:30.641Z,1025.44
2018-09-26T02:09:11.046Z,1025.44
2018-09-26T02:09:51.383Z,1025.44
2018-09-26T02:10:31.792Z,1025.45
2018-09-26T02:11:12.209Z,1025.49
2018-09-26T02:11:52.604Z,1025.52
2018-09-26T02:12:32.942Z,1025.5
2018-09-26T02:13:13.422Z,1025.54
2018-09-26T02:13:53.805Z,1025.52
2018-09-26T02:14:34.139Z,1025.53
2018-09-26T02:15:14.604Z,1025.56
2018-09-26T02:15:54.971Z,1025.55
2018-09-26T02:16:35.400Z,1025.53
2018-09-26T02:17:15.746Z,1025.54
2018-09-26T02:17:56.193Z,1025.56
2018-09-26T02:18:36.606Z,1025.55
2018-09-26T02:19:16.980Z,1025.56
2018-09-26T02:19:57.349Z,1025.58
2018-09-26T02:20:37.732Z,1025.56
2018-09-26T02:21:18.107Z,1025.52
2018-09-26T02:21:58.478Z,1025.53
2018-09-26T02:22:38.882Z,1025.55
2018-09-26T02:23:19.274Z,1025.56
2018-09-26T02:23:59.704Z,1025.56
2018-09-26T02:24:40.165Z,1025.58
2018-09-26T02:25:20.604Z,1025.61
2018-09-26T02:26:01.016Z,1025.6
2018-09-26T02:30:07.660Z,1025.56
2018-09-26T02:30:46.460Z,1025.51
2018-09-26T02:31:26.895Z,1025.55
2018-09-26T02:32:07.251Z,1025.55
2018-09-26T02:32:47.672Z,1025.51
2018-09-26T02:33:28.102Z,1025.5
2018-09-26T02:34:08.512Z,1025.5
2018-09-26T02:34:48.878Z,1025.52
2018-09-26T02:35:29.274Z,1025.49
2018-09-26T02:36:09.687Z,1025.47
2018-09-26T02:36:50.077Z,1025.48
2018-09-26T02:37:30.482Z,1025.45
2018-09-26T02:38:10.868Z,1025.47
2018-09-26T02:38:51.250Z,1025.51
2018-09-26T02:39:31.641Z,1025.48
2018-09-26T02:40:12.037Z,1025.41
2018-09-26T02:40:52.446Z,1025.5
2018-09-26T02:41:32.822Z,1025.43
2018-09-26T02:42:13.246Z,1025.46
2018-09-26T02:42:53.610Z,1025.47
2018-09-26T02:43:34.020Z,1025.44
2018-09-26T02:44:14.416Z,1025.49
2018-09-26T02:44:54.802Z,1025.47
2018-09-26T02:45:35.191Z,1025.45
2018-09-26T02:46:15.603Z,1025.48
2018-09-26T02:46:55.997Z,1025.46
2018-09-26T02:47:36.419Z,1025.45
2018-09-26T02:48:16.790Z,1025.41
2018-09-26T02:48:57.204Z,1025.45
2018-09-26T02:49:37.638Z,1025.41
2018-09-26T02:50:17.982Z,1025.42
2018-09-26T02:50:58.392Z,1025.43
2018-09-26T02:51:38.785Z,1025.45
2018-09-26T02:52:19.162Z,1025.45
2018-09-26T02:53:02.502Z,1025.48
2018-09-26T02:53:42.890Z,1025.42
2018-09-26T02:54:23.306Z,1025.42
2018-09-26T02:56:51.869Z,1025.38
2018-09-26T02:57:32.402Z,1025.36
2018-09-26T02:58:12.818Z,1025.34
2018-09-26T02:58:53.261Z,1025.32
2018-09-26T02:59:33.632Z,1025.27
2018-09-26T03:00:14.073Z,1025.28
2018-09-26T03:00:54.399Z,1025.26
2018-09-26T03:01:34.806Z,1025.26
2018-09-26T03:02:15.252Z,1025.2
2018-09-26T03:02:55.673Z,1025.2
2018-09-26T03:06:12.122Z,1025.25
2018-09-26T03:06:52.717Z,1025.24
2018-09-26T03:07:33.106Z,1025.23
2018-09-26T03:08:13.560Z,1025.28
2018-09-26T03:08:53.983Z,1025.24
2018-09-26T03:09:34.350Z,1025.23
2018-09-26T03:10:14.751Z,1025.19
2018-09-26T03:10:55.233Z,1025.15
2018-09-26T03:11:35.575Z,1025.13
2018-09-26T03:12:15.976Z,1025.09
2018-09-26T03:12:56.416Z,1025.09
2018-09-26T03:13:36.781Z,1025.07
2018-09-26T03:14:17.192Z,1025.06
2018-09-26T03:14:57.617Z,1025.08
2018-09-26T03:15:38.070Z,1025
2018-09-26T03:16:18.458Z,1025.01
2018-09-26T03:16:58.801Z,1024.93
2018-09-26T03:17:39.321Z,1024.93
2018-09-26T03:18:19.601Z,1024.96
2018-09-26T03:18:59.973Z,1025.01
2018-09-26T03:19:40.370Z,1025.02
2018-09-26T03:20:20.744Z,1025.04
2018-09-26T03:21:01.172Z,1025.09
2018-09-26T03:21:41.574Z,1025.09
2018-09-26T03:22:22.032Z,1025.12
2018-09-26T03:23:02.410Z,1025.15
2018-09-26T03:23:42.805Z,1025.21
2018-09-26T03:24:23.221Z,1025.21
2018-09-26T03:25:03.618Z,1025.25
2018-09-26T03:25:43.968Z,1025.27
2018-09-26T03:26:24.398Z,1025.26
2018-09-26T03:27:04.776Z,1025.26
2018-09-26T03:27:45.202Z,1025.24
2018-09-26T03:28:25.581Z,1025.24
2018-09-26T03:29:05.960Z,1025.24
2018-09-26T03:29:46.405Z,1025.19
2018-09-26T03:30:26.777Z,1025.23
2018-09-26T03:31:07.172Z,1025.26
2018-09-26T03:31:47.535Z,1025.26
2018-09-26T03:32:27.967Z,1025.25
2018-09-26T03:33:08.351Z,1025.23
2018-09-26T03:33:48.847Z,1025.2
2018-09-26T03:34:29.127Z,1025.2
2018-09-26T03:38:49.549Z,1025.04
2018-09-26T03:39:29.934Z,1025.05
2018-09-26T03:40:10.333Z,1025.06
2018-09-26T03:40:50.717Z,1025.07
2018-09-26T03:41:31.112Z,1025.09
2018-09-26T03:42:11.544Z,1025.09
2018-09-26T03:42:51.972Z,1025.18
2018-09-26T03:44:49.556Z,1025.15
2018-09-26T03:45:30.588Z,1025.12
2018-09-26T03:46:11.047Z,1025.13
2018-09-26T03:46:51.427Z,1025.12
2018-09-26T03:47:31.851Z,1025.14
2018-09-26T03:48:12.211Z,1025.12
2018-09-26T03:48:52.645Z,1025.17
2018-09-26T03:49:33.047Z,1025.15
2018-09-26T03:50:13.432Z,1025.15
2018-09-26T03:50:53.850Z,1025.16
2018-09-26T03:52:46.570Z,1025.19
2018-09-26T03:53:26.660Z,1025.18
2018-09-26T03:54:07.064Z,1025.16
2018-09-26T03:54:47.495Z,1025.12
2018-09-26T03:55:28.017Z,1025.13
2018-09-26T03:56:08.392Z,1025.09
2018-09-26T03:56:50.420Z,1025.08
2018-09-26T03:57:30.855Z,1025.09
2018-09-26T03:58:11.230Z,1025.06
2018-09-26T03:58:51.683Z,1025.08
2018-09-26T04:00:49.341Z,1025.13
2018-09-26T04:01:29.638Z,1025.18
2018-09-26T04:02:10.061Z,1025.12
2018-09-26T04:04:25.235Z,1025.18
2018-09-26T04:05:05.544Z,1025.15
2018-09-26T04:05:45.960Z,1025.17
2018-09-26T04:06:26.319Z,1025.13
2018-09-26T04:07:06.749Z,1025.16
2018-09-26T04:07:47.082Z,1025.16
2018-09-26T04:08:27.476Z,1025.15
2018-09-26T04:09:07.948Z,1025.21
2018-09-26T04:09:48.345Z,1025.23
2018-09-26T04:10:28.719Z,1025.25
2018-09-26T04:11:09.109Z,1025.23
2018-09-26T04:11:49.549Z,1025.3
2018-09-26T04:12:29.954Z,1025.29
2018-09-26T04:13:10.378Z,1025.32
2018-09-26T04:13:50.693Z,1025.31
2018-09-26T04:14:31.092Z,1025.26
2018-09-26T04:15:11.483Z,1025.24
2018-09-26T04:15:51.923Z,1025.24
2018-09-26T04:16:32.307Z,1025.26
2018-09-26T04:17:12.723Z,1025.21
2018-09-26T04:19:26.185Z,1025.25
2018-09-26T04:20:06.569Z,1025.24
2018-09-26T04:20:46.974Z,1025.24
2018-09-26T04:21:27.412Z,1025.27
2018-09-26T04:23:46.411Z,1025.23
2018-09-26T04:24:26.793Z,1025.21
2018-09-26T04:25:07.177Z,1025.19
2018-09-26T04:25:47.573Z,1025.22
2018-09-26T04:26:28.118Z,1025.23
2018-09-26T05:07:14.229Z,1025.23
2018-09-26T05:08:07.212Z,1025.24
2018-09-26T05:08:58.837Z,1025.27
2018-09-26T05:09:48.768Z,1025.31
2018-09-26T05:10:29.373Z,1025.29
2018-09-26T05:11:09.751Z,1025.28
2018-09-26T05:11:50.112Z,1025.29
2018-09-26T05:12:30.492Z,1025.31
2018-09-26T05:13:10.965Z,1025.29
2018-09-26T05:13:51.312Z,1025.32
2018-09-26T05:14:31.737Z,1025.27
2018-09-26T05:15:12.225Z,1025.26
2018-09-26T05:15:52.605Z,1025.25
2018-09-26T05:16:33.047Z,1025.23
2018-09-26T05:17:13.464Z,1025.23
2018-09-26T05:17:53.888Z,1025.24
2018-09-26T05:18:34.291Z,1025.22
2018-09-26T05:19:14.729Z,1025.25
2018-09-26T05:19:55.092Z,1025.29
2018-09-26T05:20:35.531Z,1025.25
2018-09-26T05:21:15.931Z,1025.26
2018-09-26T05:21:56.277Z,1025.31
2018-09-26T05:22:36.733Z,1025.32
2018-09-26T05:23:17.285Z,1025.3
2018-09-26T05:23:57.544Z,1025.29
2018-09-26T05:24:37.967Z,1025.26
2018-09-26T05:25:18.343Z,1025.28
2018-09-26T05:25:58.794Z,1025.31
2018-09-26T05:26:39.121Z,1025.31
2018-09-26T05:27:19.495Z,1025.32
2018-09-26T05:27:59.921Z,1025.3
2018-09-26T05:28:40.314Z,1025.3
2018-09-26T05:29:20.733Z,1025.27
2018-09-26T05:30:01.150Z,1025.31
2018-09-26T05:30:41.567Z,1025.25
2018-09-26T05:31:21.988Z,1025.24
2018-09-26T05:32:02.354Z,1025.23
2018-09-26T05:32:42.731Z,1025.27
2018-09-26T05:33:23.119Z,1025.25
2018-09-26T05:34:03.509Z,1025.27
2018-09-26T05:34:43.917Z,1025.26
2018-09-26T05:35:24.324Z,1025.27
2018-09-26T05:36:04.767Z,1025.25
2018-09-26T05:36:45.147Z,1025.2
2018-09-26T05:37:25.587Z,1025.2
2018-09-26T05:38:05.940Z,1025.19
2018-09-26T05:38:46.373Z,1025.18
2018-09-26T05:39:26.803Z,1025.19
2018-09-26T05:40:07.241Z,1025.18
2018-09-26T05:40:47.618Z,1025.2
2018-09-26T05:41:28.050Z,1025.14
2018-09-26T05:42:08.491Z,1025.15
2018-09-26T05:42:48.934Z,1025.16
2018-09-26T05:43:29.281Z,1025.18
2018-09-26T05:44:09.727Z,1025.2
2018-09-26T05:44:50.102Z,1025.18
2018-09-26T05:45:30.477Z,1025.18
2018-09-26T05:46:10.920Z,1025.17
2018-09-26T05:46:51.359Z,1025.23
2018-09-26T05:47:31.806Z,1025.26
2018-09-26T05:48:13.079Z,1025.17
2018-09-26T05:48:53.510Z,1025.21
2018-09-26T05:49:33.889Z,1025.19
2018-09-26T05:50:14.335Z,1025.27
2018-09-26T05:50:54.732Z,1025.19
2018-09-26T05:51:35.101Z,1025.19
2018-09-26T05:52:15.604Z,1025.21
2018-09-26T05:52:55.901Z,1025.25
2018-09-26T05:53:36.478Z,1025.23
2018-09-26T05:54:16.718Z,1025.23
2018-09-26T05:54:57.226Z,1025.21
2018-09-26T05:55:37.552Z,1025.22
2018-09-26T05:56:18.025Z,1025.26
2018-09-26T05:56:58.395Z,1025.24
2018-09-26T05:57:39.080Z,1025.22
2018-09-26T05:58:19.526Z,1025.24
2018-09-26T05:58:59.975Z,1025.25
2018-09-26T05:59:40.416Z,1025.22
2018-09-26T06:00:20.817Z,1025.24
2018-09-26T06:01:01.278Z,1025.22
2018-09-26T06:01:41.661Z,1025.21
2018-09-26T06:02:22.079Z,1025.24
2018-09-26T06:03:02.495Z,1025.16
2018-09-26T06:03:42.841Z,1025.17
2018-09-26T06:04:23.222Z,1025.19
2018-09-26T06:05:03.624Z,1025.18
2018-09-26T06:05:44.072Z,1025.18
2018-09-26T06:06:24.519Z,1025.2
2018-09-26T06:07:05.002Z,1025.14
2018-09-26T06:07:45.388Z,1025.19
2018-09-26T06:08:25.774Z,1025.17
2018-09-26T06:09:06.419Z,1025.15
2018-09-26T06:09:46.924Z,1025.13
2018-09-26T06:10:28.271Z,1025.16
2018-09-26T06:11:09.301Z,1025.16
2018-09-26T06:11:49.443Z,1025.14
2018-09-26T06:12:30.021Z,1025.14
2018-09-26T06:13:11.833Z,1025.14
2018-09-26T06:13:51.608Z,1025.16
2018-09-26T06:14:32.079Z,1025.14
2018-09-26T06:15:13.791Z,1025.11
2018-09-26T06:15:53.554Z,1025.14
2018-09-26T06:16:34.130Z,1025.09
2018-09-26T06:17:14.428Z,1025.12
2018-09-26T06:17:54.835Z,1025.1
2018-09-26T06:18:35.287Z,1025.12
2018-09-26T06:19:15.792Z,1025.08
2018-09-26T06:19:56.232Z,1025.11
2018-09-26T06:20:37.271Z,1025.08
2018-09-26T06:21:17.846Z,1025.12
2018-09-26T06:21:58.278Z,1025.1
2018-09-26T06:22:38.759Z,1025.08
2018-09-26T06:23:19.178Z,1025.11
2018-09-26T06:23:59.538Z,1025.09
2018-09-26T06:24:40.019Z,1025.13
2018-09-26T06:25:20.385Z,1025.15
2018-09-26T06:26:00.894Z,1025.15
2018-09-26T06:26:41.261Z,1025.12
2018-09-26T06:27:21.702Z,1025.16
2018-09-26T06:28:02.404Z,1025.18
2018-09-26T06:28:42.754Z,1025.16
2018-09-26T06:29:23.042Z,1025.18
2018-09-26T06:30:03.772Z,1025.21
2018-09-26T06:31:25.022Z,1025.27
2018-09-26T06:32:06.586Z,1025.3
2018-09-26T06:32:46.897Z,1025.3
2018-09-26T06:33:26.557Z,1025.3
2018-09-26T06:34:07.102Z,1025.3
2018-09-26T06:34:47.799Z,1025.29
2018-09-26T06:35:28.326Z,1025.29
2018-09-26T06:36:08.789Z,1025.26
2018-09-26T06:36:50.392Z,1025.32
2018-09-26T06:37:31.435Z,1025.27
2018-09-26T06:38:11.171Z,1025.3
2018-09-26T06:38:52.058Z,1025.33
2018-09-26T06:39:33.177Z,1025.33
2018-09-26T06:40:13.682Z,1025.37
2018-09-26T06:40:54.596Z,1025.29
2018-09-26T06:41:36.406Z,1025.36
2018-09-26T06:42:16.738Z,1025.36
2018-09-26T06:42:57.330Z,1025.34
2018-09-26T06:43:38.502Z,1025.34
2018-09-26T06:44:19.373Z,1025.33
2018-09-26T06:44:59.765Z,1025.33
2018-09-26T06:45:40.900Z,1025.33
2018-09-26T06:46:21.331Z,1025.32
2018-09-26T06:47:01.910Z,1025.32
2018-09-26T06:47:42.477Z,1025.33
2018-09-26T06:48:23.894Z,1025.33
2018-09-26T06:49:03.800Z,1025.36
2018-09-26T06:49:44.241Z,1025.34
2018-09-26T06:50:24.658Z,1025.4
2018-09-26T06:51:05.083Z,1025.35
2018-09-26T06:51:45.589Z,1025.37
2018-09-26T06:52:28.629Z,1025.38
2018-09-26T06:53:09.421Z,1025.41
2018-09-26T06:53:49.874Z,1025.39
2018-09-26T06:54:30.333Z,1025.4
2018-09-26T06:55:10.825Z,1025.4
2018-09-26T06:55:51.247Z,1025.43
2018-09-26T06:56:31.723Z,1025.42
2018-09-26T06:57:13.282Z,1025.39
2018-09-26T06:59:41.937Z,1025.36
2018-09-26T07:00:35.605Z,1025.39
2018-09-26T07:01:33.507Z,1025.39
2018-09-26T07:02:28.215Z,1025.36
2018-09-26T07:05:06.210Z,1025.36
2018-09-26T07:10:27.281Z,1025.33
2018-09-26T07:11:21.663Z,1025.26
2018-09-26T07:14:58.550Z,1025.16
2018-09-26T07:16:19.704Z,1025.14
2018-09-26T07:19:12.019Z,1025.18
2018-09-26T07:19:53.181Z,1025.22
2018-09-26T07:20:33.631Z,1025.19
2018-09-26T07:21:14.177Z,1025.24
2018-09-26T07:21:54.715Z,1025.23
2018-09-26T07:22:35.589Z,1025.21
2018-09-26T07:23:16.763Z,1025.24
2018-09-26T07:23:57.126Z,1025.26
2018-09-26T07:24:37.581Z,1025.24
2018-09-26T07:25:18.034Z,1025.28
2018-09-26T07:25:58.410Z,1025.22
2018-09-26T07:26:38.796Z,1025.23
2018-09-26T07:27:19.234Z,1025.26
2018-09-26T07:27:59.692Z,1025.24
2018-09-26T07:28:40.189Z,1025.2
2018-09-26T07:29:20.795Z,1025.2
2018-09-26T07:30:01.127Z,1025.17
2018-09-26T07:30:41.421Z,1025.14
2018-09-26T07:31:21.892Z,1025.13
2018-09-26T07:32:02.310Z,1025.16
2018-09-26T07:32:42.809Z,1025.14
2018-09-26T07:33:23.056Z,1025.14
2018-09-26T07:34:03.679Z,1025.14
2018-09-26T07:34:47.588Z,1025.18
2018-09-26T07:35:26.450Z,1025.14
2018-09-26T07:36:06.900Z,1025.18
2018-09-26T07:36:47.311Z,1025.2
2018-09-26T07:37:27.640Z,1025.16
2018-09-26T07:38:08.191Z,1025.22
2018-09-26T07:38:48.600Z,1025.24
2018-09-26T07:39:29.740Z,1025.25
2018-09-26T07:40:10.271Z,1025.25
2018-09-26T07:40:50.772Z,1025.26
2018-09-26T07:41:34.053Z,1025.28
2018-09-26T07:42:12.688Z,1025.29
2018-09-26T07:42:53.348Z,1025.3
2018-09-26T07:43:36.062Z,1025.34
2018-09-26T07:44:16.565Z,1025.25
2018-09-26T07:44:56.984Z,1025.27
2018-09-26T07:45:37.519Z,1025.24
2018-09-26T07:46:17.851Z,1025.25
2018-09-26T07:46:58.212Z,1025.22
2018-09-26T07:47:40.286Z,1025.23
2018-09-26T07:48:22.959Z,1025.23
2018-09-26T07:49:04.696Z,1025.25
2018-09-26T07:49:45.237Z,1025.28
2018-09-26T07:50:25.710Z,1025.24
2018-09-26T07:51:06.245Z,1025.24
2018-09-26T07:51:46.691Z,1025.29
2018-09-26T07:52:27.148Z,1025.21
2018-09-26T07:53:07.832Z,1025.18
2018-09-26T07:53:48.970Z,1025.15
2018-09-26T07:54:29.547Z,1025.17
2018-09-26T07:55:09.983Z,1025.15
2018-09-26T07:55:50.456Z,1025.17
2018-09-26T07:56:30.881Z,1025.16
2018-09-26T07:57:11.384Z,1025.23
2018-09-26T07:57:51.768Z,1025.15
2018-09-26T07:58:32.453Z,1025.22
2018-09-26T08:02:15.196Z,1025.38
2018-09-26T08:02:55.835Z,1025.38
2018-09-26T08:03:36.206Z,1025.36
2018-09-26T08:04:16.672Z,1025.36
2018-09-26T08:04:58.426Z,1025.37
2018-09-26T08:05:39.807Z,1025.35
2018-09-26T08:06:20.300Z,1025.34
2018-09-26T08:07:00.664Z,1025.31
2018-09-26T08:07:41.060Z,1025.31
2018-09-26T08:08:21.520Z,1025.36
2018-09-26T08:09:02.062Z,1025.39
2018-09-26T08:09:42.519Z,1025.41
2018-09-26T08:10:23.041Z,1025.44
2018-09-26T08:11:03.395Z,1025.41
2018-09-26T08:11:44.341Z,1025.43
2018-09-26T08:12:26.348Z,1025.41
2018-09-26T08:13:07.943Z,1025.41
2018-09-26T08:13:48.427Z,1025.41
2018-09-26T08:14:28.811Z,1025.42
2018-09-26T08:15:09.288Z,1025.38
2018-09-26T08:15:49.652Z,1025.43
2018-09-26T08:16:30.127Z,1025.47
2018-09-26T08:17:10.596Z,1025.45
2018-09-26T08:17:50.947Z,1025.44
2018-09-26T08:18:31.570Z,1025.47
2018-09-26T08:19:12.376Z,1025.48
2018-09-26T08:19:52.774Z,1025.47
2018-09-26T08:20:33.279Z,1025.51
2018-09-26T08:21:13.739Z,1025.49
2018-09-26T08:21:54.155Z,1025.48
2018-09-26T08:22:34.615Z,1025.51
2018-09-26T08:23:14.977Z,1025.49
2018-09-26T08:23:55.409Z,1025.48
2018-09-26T08:24:35.811Z,1025.54
2018-09-26T08:25:16.250Z,1025.52
2018-09-26T08:25:56.729Z,1025.55
2018-09-26T08:26:37.127Z,1025.58
2018-09-26T08:27:17.557Z,1025.55
2018-09-26T08:27:58.744Z,1025.61
2018-09-26T08:28:41.256Z,1025.58
2018-09-26T08:29:21.565Z,1025.58
2018-09-26T08:30:02.013Z,1025.61
2018-09-26T08:30:42.528Z,1025.56
2018-09-26T08:31:22.924Z,1025.6
2018-09-26T08:32:03.366Z,1025.58
2018-09-26T08:32:56.646Z,1025.23
2018-09-26T08:35:37.981Z,1025.54
2018-09-26T08:37:42.191Z,1025.54
2018-09-26T08:38:22.769Z,1025.57
2018-09-26T08:39:03.226Z,1025.59
2018-09-26T08:39:43.719Z,1025.59
2018-09-26T08:40:24.263Z,1025.58
2018-09-26T08:41:04.688Z,1025.59
2018-09-26T08:41:45.437Z,1025.56
2018-09-26T08:42:25.935Z,1025.56
2018-09-26T08:43:06.436Z,1025.54
2018-09-26T08:43:46.899Z,1025.55
2018-09-26T08:44:27.473Z,1025.51
2018-09-26T08:45:07.946Z,1025.49
2018-09-26T08:45:48.499Z,1025.49
2018-09-26T08:46:29.057Z,1025.48
2018-09-26T08:47:09.496Z,1025.48
2018-09-26T08:47:50.058Z,1025.42
2018-09-26T08:48:30.477Z,1025.43
2018-09-26T08:50:33.907Z,1025.39
2018-09-26T08:51:14.202Z,1025.38
2018-09-26T08:51:54.810Z,1025.34
2018-09-26T08:52:35.161Z,1025.39
2018-09-26T08:53:15.558Z,1025.35
2018-09-26T08:53:55.969Z,1025.38
2018-09-26T08:54:36.788Z,1025.36
2018-09-26T08:55:21.139Z,1025.42
2018-09-26T08:56:02.243Z,1025.36
2018-09-26T08:56:42.637Z,1025.37
2018-09-26T08:57:23.083Z,1025.43
2018-09-26T08:58:03.531Z,1025.36
2018-09-26T08:58:44.221Z,1025.44
2018-09-26T08:59:24.638Z,1025.42
2018-09-26T09:00:04.983Z,1025.37
2018-09-26T09:00:45.424Z,1025.35
2018-09-26T09:01:26.021Z,1025.32
2018-09-26T09:02:06.652Z,1025.35
2018-09-26T09:02:48.397Z,1025.27
2018-09-26T09:03:28.987Z,1025.3
2018-09-26T09:04:09.714Z,1025.27
2018-09-26T09:04:50.087Z,1025.28
2018-09-26T09:05:30.556Z,1025.31
2018-09-26T09:06:11.939Z,1025.22
2018-09-26T09:06:52.353Z,1025.25
2018-09-26T09:07:32.803Z,1025.28
2018-09-26T09:08:13.478Z,1025.28
2018-09-26T09:08:54.762Z,1025.25
2018-09-26T09:09:35.064Z,1025.26
2018-09-26T09:10:15.433Z,1025.26
2018-09-26T09:10:56.607Z,1025.25
2018-09-26T09:11:37.053Z,1025.22
2018-09-26T09:12:17.453Z,1025.21
2018-09-26T09:12:57.897Z,1025.24
2018-09-26T09:13:38.383Z,1025.23
2018-09-26T09:14:18.781Z,1025.22
2018-09-26T09:14:59.211Z,1025.23
2018-09-26T09:15:39.580Z,1025.24
2018-09-26T09:16:20.096Z,1025.26
2018-09-26T09:17:00.366Z,1025.21
2018-09-26T09:17:40.921Z,1025.26
2018-09-26T09:18:21.327Z,1025.28
2018-09-26T09:19:01.717Z,1025.3
2018-09-26T09:19:42.135Z,1025.29
2018-09-26T09:20:22.570Z,1025.27
2018-09-26T09:21:02.904Z,1025.32
2018-09-26T09:21:43.393Z,1025.3
2018-09-26T09:22:23.818Z,1025.31
2018-09-26T09:23:04.258Z,1025.28
2018-09-26T09:23:44.778Z,1025.28
2018-09-26T09:24:25.190Z,1025.31
2018-09-26T09:25:05.650Z,1025.34
2018-09-26T09:25:46.057Z,1025.27
2018-09-26T09:26:26.480Z,1025.29
2018-09-26T09:27:06.927Z,1025.27
2018-09-26T09:27:47.304Z,1025.25
2018-09-26T09:28:27.687Z,1025.29
2018-09-26T09:29:08.088Z,1025.27
2018-09-26T09:29:48.571Z,1025.26
2018-09-26T09:30:28.984Z,1025.32
2018-09-26T09:31:09.484Z,1025.26
2018-09-26T09:31:49.924Z,1025.28
2018-09-26T09:32:30.300Z,1025.25
2018-09-26T09:33:10.709Z,1025.27
2018-09-26T09:33:51.189Z,1025.25
2018-09-26T09:34:31.641Z,1025.24
2018-09-26T09:35:11.991Z,1025.26
2018-09-26T09:35:52.407Z,1025.3
2018-09-26T09:36:32.928Z,1025.3
2018-09-26T09:37:13.434Z,1025.25
2018-09-26T09:37:53.892Z,1025.25
2018-09-26T09:38:34.566Z,1025.21
2018-09-26T09:39:14.848Z,1025.27
2018-09-26T09:39:55.304Z,1025.26
2018-09-26T09:40:35.863Z,1025.3
2018-09-26T09:41:16.219Z,1025.29
2018-09-26T09:41:56.629Z,1025.31
2018-09-26T09:42:37.236Z,1025.3
2018-09-26T09:43:18.037Z,1025.33
2018-09-26T09:43:58.566Z,1025.33
2018-09-26T09:44:40.150Z,1025.32